createdAt,value
2022-08-17T00:00:01.357Z,22.11
2022-08-17T00:10:04.048Z,21.93
2022-08-17T00:20:07.778Z,21.72
2022-08-17T00:30:12.498Z,21.53
2022-08-17T00:40:15.526Z,21.28
2022-08-17T00:50:19.371Z,21.22
2022-08-17T01:00:30.273Z,21.01
2022-08-17T01:10:57.358Z,21.40
2022-08-17T01:21:11.111Z,21.06
2022-08-17T01:31:15.142Z,20.93
2022-08-17T01:41:19.128Z,20.74
2022-08-17T01:51:22.104Z,20.58
2022-08-17T02:01:28.366Z,20.49
2022-08-17T02:11:34.249Z,20.50
2022-08-17T02:21:38.301Z,20.33
2022-08-17T02:31:40.744Z,20.21
2022-08-17T02:41:45.197Z,20.24
2022-08-17T02:51:52.271Z,20.06
2022-08-17T03:01:54.694Z,19.77
2022-08-17T03:12:05.743Z,19.79
2022-08-17T03:22:35.631Z,19.74
2022-08-17T03:32:39.213Z,19.71
2022-08-17T03:42:42.331Z,19.79
2022-08-17T03:53:03.203Z,19.68
2022-08-17T04:03:09.002Z,20.00
2022-08-17T04:13:11.514Z,20.07
2022-08-17T04:23:16.410Z,20.34
2022-08-17T04:33:24.348Z,20.68
2022-08-17T04:43:28.255Z,20.73
2022-08-17T04:53:30.635Z,21.08
2022-08-17T05:03:32.981Z,21.36
2022-08-17T05:13:35.402Z,21.63
2022-08-17T05:23:42.777Z,21.96
2022-08-17T05:33:46.455Z,22.59
2022-08-17T05:43:51.842Z,22.96
2022-08-17T05:54:35.743Z,23.62
2022-08-17T06:04:50.587Z,24.33
2022-08-17T06:15:19.829Z,24.74
2022-08-17T06:25:45.591Z,25.47
2022-08-17T06:36:25.355Z,26.18
2022-08-17T06:46:36.439Z,26.92
2022-08-17T06:56:56.052Z,27.62
2022-08-17T07:07:29.688Z,28.27
2022-08-17T07:17:47.523Z,29.02
2022-08-17T07:27:54.734Z,29.74
2022-08-17T07:38:24.920Z,29.76
2022-08-17T07:48:33.830Z,30.04
2022-08-17T07:58:36.437Z,30.82
2022-08-17T08:08:43.685Z,31.40
2022-08-17T08:18:55.542Z,31.72
2022-08-17T08:29:50.978Z,31.85
2022-08-17T08:40:11.594Z,32.83
2022-08-17T08:50:37.141Z,32.93
2022-08-17T09:00:46.309Z,33.50
2022-08-17T09:11:02.615Z,32.91
2022-08-17T09:21:11.187Z,33.31
2022-08-17T09:31:24.100Z,33.58
2022-08-17T09:41:49.142Z,34.54
2022-08-17T09:52:00.792Z,35.78
2022-08-17T10:02:40.702Z,34.84
2022-08-17T10:12:56.065Z,35.23
2022-08-17T10:23:33.275Z,35.97
2022-08-17T10:33:51.196Z,35.40
2022-08-17T10:44:37.483Z,36.18
2022-08-17T10:54:25.158Z,33.80
2022-08-17T11:04:48.154Z,35.82
2022-08-17T11:14:58.185Z,36.14
2022-08-17T11:25:34.107Z,37.42
2022-08-17T11:35:48.617Z,37.32
2022-08-17T11:46:25.137Z,36.52
2022-08-17T11:56:33.274Z,37.81
2022-08-17T12:06:48.627Z,36.95
2022-08-17T12:17:26.508Z,36.79
2022-08-17T12:28:04.294Z,37.51
2022-08-17T12:38:31.917Z,35.37
2022-08-17T12:48:36.313Z,36.55
2022-08-17T12:58:49.222Z,35.81
2022-08-17T13:08:52.431Z,35.99
2022-08-17T13:19:14.859Z,37.45
2022-08-17T13:29:33.302Z,37.10
2022-08-17T13:39:41.898Z,37.12
2022-08-17T13:49:48.842Z,37.09
2022-08-17T14:00:18.100Z,36.87
2022-08-17T14:10:21.113Z,36.41
2022-08-17T14:20:24.812Z,36.70
2022-08-17T14:30:29.842Z,35.12
2022-08-17T14:40:35.419Z,34.61
2022-08-17T14:50:39.570Z,35.84
2022-08-17T15:00:43.993Z,34.80
2022-08-17T15:10:54.191Z,36.17
2022-08-17T15:20:57.227Z,34.77
2022-08-17T15:31:00.491Z,34.52
2022-08-17T15:41:03.381Z,33.67
2022-08-17T15:51:06.186Z,32.50
2022-08-17T16:01:16.661Z,31.32
2022-08-17T16:11:22.765Z,31.15
2022-08-17T16:21:31.174Z,31.00
2022-08-17T16:31:45.067Z,31.19
2022-08-17T16:41:48.558Z,31.01
2022-08-17T16:51:51.388Z,30.87
2022-08-17T17:01:54.142Z,30.53
2022-08-17T17:12:00.670Z,30.31
2022-08-17T17:22:10.006Z,29.85
2022-08-17T17:32:39.198Z,29.07
2022-08-17T17:42:43.672Z,28.92
2022-08-17T17:53:19.603Z,28.56
2022-08-17T18:04:02.094Z,28.17
2022-08-17T18:14:44.844Z,28.17
2022-08-17T18:24:56.259Z,27.89
2022-08-17T18:35:19.080Z,27.89
2022-08-17T18:45:42.878Z,27.67
2022-08-17T18:55:45.443Z,27.50
2022-08-17T19:05:57.316Z,27.53
2022-08-17T19:16:21.015Z,27.07
2022-08-17T19:26:53.928Z,27.11
2022-08-17T19:37:01.086Z,27.13
2022-08-17T19:47:22.535Z,26.99
2022-08-17T19:57:34.882Z,26.76
2022-08-17T20:07:48.922Z,26.43
2022-08-17T20:17:53.975Z,26.40
2022-08-17T20:28:05.867Z,26.26
2022-08-17T20:38:12.379Z,26.12
2022-08-17T20:48:36.917Z,25.81
2022-08-17T20:58:46.727Z,25.87
2022-08-17T21:08:59.083Z,25.77
2022-08-17T21:20:00.481Z,25.72
2022-08-17T21:30:10.177Z,25.48
2022-08-17T21:40:18.925Z,25.28
2022-08-17T21:50:25.267Z,24.97
2022-08-17T22:00:32.727Z,24.76
2022-08-17T22:10:38.287Z,24.64
2022-08-17T22:20:41.219Z,24.23
2022-08-17T22:31:00.672Z,23.96
2022-08-17T22:41:15.293Z,23.88
2022-08-17T22:51:30.115Z,23.81
2022-08-17T23:01:35.093Z,23.68
2022-08-17T23:11:49.527Z,23.43
2022-08-17T23:21:55.484Z,23.38
2022-08-17T23:32:00.196Z,23.20
2022-08-17T23:42:09.270Z,22.98
2022-08-17T23:52:15.241Z,22.74
